Hauptseite
METAR-TAF:

METAR-TAF

Flughäfen :

Caracas, Venezuela

Flughafen Caracas

Breite: 10-36N, Länge: 066-59W, Höhe: 43 m

Beobachtung

Neuester Wetterbericht von vor 50 Minuten, um 23:00 UTC
Wind 2 kt aus Nordost
Temperatur 29°C
Luftfeuchtigkeit 79%
Luftdruck 1010 hPa
Sichtweite 10 km oder mehr
Aufgelockert bewölkt in der Höhe von 1600 ft

METAR: SVMI 162300Z 05002KT 9999 SCT016 29/25 Q1010

Zeit: 19:50 (23:50 UTC)

Prognose

Neuester Wetterbericht von vor 1 Stunde und 50 Minuten, um 22:00 UTC
Gültige Prognose vom 17 um 00 UTC bis 18 um 00 UTC
Wind 4 kt aus Nordost
Sichtweite 10 km oder mehr
Zeitweise
vom 17 um 00 UTC bis 18 um 06 UTC
Wind kt aus Nord
Sichtweite: 9000 m
Leicht bewölkt in der Höhe von 1300 ft, Kumulonimbus.
Durchbrochene Bewölkung in der Höhe von 2000 ft
Gewitter, Sprühregen

TAF: SVMI 162200Z 1700/1800 05004KT 9999 BKN0016 TX32/18Z TN22/07Z TEMPO 1700/1806 00000KT 9000 TSDZ FEW013CB BKN020

Wetterbeobachtungen und Prognosen von mehr als 4000 Flughäfen (METAR und TAF Bericht).

Die verfügbaren Stationen werden durch gelbe und rote Markierungen auf der Karte dargestellt.

Führen Sie die Maus auf sie, um den Namen der Station zu sehen.

Darauf klicken, um die Beobachtung von Wetterbeobachtungen und Prognosen zu sehen.

Um die Karte zu ändern : klicken Sie auf den grünen Tasten mit einem schwarzen Kreuz Zum Vergrößern, auf den grünen Button mit einem Gedankenstrich zu verkleinern, oder auf die grünen Pfeile für benachbarte Karten.


METAR-TAF: